createdAt,value
2017-10-02T00:00:44.063Z,996.06
2017-10-02T00:01:44.084Z,996.03
2017-10-02T00:02:44.106Z,996.01
2017-10-02T00:03:44.219Z,995.97
2017-10-02T00:04:43.943Z,995.94
2017-10-02T00:05:44.700Z,996.00
2017-10-02T00:06:44.850Z,995.94
2017-10-02T00:07:45.283Z,996.01
2017-10-02T00:08:44.720Z,996.04
2017-10-02T00:09:45.156Z,995.93
2017-10-02T00:10:45.724Z,995.89
2017-10-02T00:11:44.997Z,995.93
2017-10-02T00:12:45.531Z,995.91
2017-10-02T00:13:45.559Z,995.97
2017-10-02T00:14:45.001Z,995.88
2017-10-02T00:15:44.002Z,995.87
2017-10-02T00:16:44.751Z,995.87
2017-10-02T00:17:44.099Z,995.86
2017-10-02T00:18:44.136Z,995.85
2017-10-02T00:19:44.161Z,995.80
2017-10-02T00:20:44.198Z,995.72
2017-10-02T00:21:44.033Z,995.77
2017-10-02T00:22:44.348Z,995.72
2017-10-02T00:23:44.171Z,995.62
2017-10-02T00:24:45.405Z,995.67
2017-10-02T00:25:44.722Z,995.64
2017-10-02T00:26:44.950Z,995.64
2017-10-02T00:27:45.576Z,995.59
2017-10-02T00:28:45.505Z,995.62
2017-10-02T00:29:45.428Z,995.61
2017-10-02T00:30:45.549Z,995.58
2017-10-02T00:31:45.069Z,995.59
2017-10-02T00:32:44.781Z,995.59
2017-10-02T00:33:44.805Z,995.54
2017-10-02T00:34:44.232Z,995.44
2017-10-02T00:35:44.159Z,995.39
2017-10-02T00:36:44.190Z,995.45
2017-10-02T00:37:44.333Z,995.45
2017-10-02T00:38:44.265Z,995.43
2017-10-02T00:39:44.211Z,995.47
2017-10-02T00:40:44.244Z,995.49
2017-10-02T00:41:44.082Z,995.42
2017-10-02T00:42:45.533Z,995.39
2017-10-02T00:43:45.668Z,995.38
2017-10-02T00:44:45.086Z,995.38
2017-10-02T00:45:45.551Z,995.38
2017-10-02T00:46:45.685Z,995.41
2017-10-02T00:47:45.702Z,995.29
2017-10-02T00:48:44.820Z,995.29
2017-10-02T00:49:44.839Z,995.27
2017-10-02T00:50:44.861Z,995.28
2017-10-02T00:51:44.300Z,995.26
2017-10-02T00:52:45.309Z,995.28
2017-10-02T00:53:44.319Z,995.24
2017-10-02T00:54:44.245Z,995.28
2017-10-02T00:55:44.182Z,995.27
2017-10-02T00:56:44.902Z,995.22
2017-10-02T00:57:44.914Z,995.28
2017-10-02T00:58:45.641Z,995.24
2017-10-02T00:59:45.261Z,995.20
2017-10-02T01:02:33.602Z,995.18
2017-10-02T01:02:34.616Z,995.12
2017-10-02T01:02:44.344Z,995.14
2017-10-02T01:05:53.586Z,995.15
2017-10-02T01:05:54.398Z,995.12
2017-10-02T01:05:55.209Z,995.08
2017-10-02T01:08:34.739Z,995.12
2017-10-02T01:08:35.554Z,995.10
2017-10-02T01:08:44.287Z,995.06
2017-10-02T01:11:59.001Z,995.04
2017-10-02T01:12:00.015Z,995.12
2017-10-02T01:12:01.260Z,995.06
2017-10-02T01:14:33.987Z,995.09
2017-10-02T01:14:34.805Z,995.02
2017-10-02T01:14:44.339Z,995.00
2017-10-02T01:18:01.186Z,995.03
2017-10-02T01:18:01.891Z,994.99
2017-10-02T01:18:02.908Z,995.01
2017-10-02T01:20:34.523Z,995.01
2017-10-02T01:20:35.335Z,994.90
2017-10-02T01:20:44.291Z,994.93
2017-10-02T01:23:52.837Z,994.87
2017-10-02T01:23:53.653Z,994.81
2017-10-02T01:23:54.765Z,994.81
2017-10-02T01:27:07.871Z,994.85
2017-10-02T01:27:08.689Z,994.85
2017-10-02T01:27:09.707Z,994.77
2017-10-02T01:29:57.436Z,994.85
2017-10-02T01:29:58.450Z,994.74
2017-10-02T01:29:59.673Z,994.79
2017-10-02T01:32:35.181Z,994.86
2017-10-02T01:32:36.002Z,994.72
2017-10-02T01:32:44.448Z,994.71
2017-10-02T01:35:45.103Z,994.70
2017-10-02T01:35:46.124Z,994.75
2017-10-02T01:35:47.137Z,994.68
2017-10-02T01:39:07.853Z,994.73
2017-10-02T01:39:08.767Z,994.70
2017-10-02T01:39:09.579Z,994.67
2017-10-02T01:41:47.999Z,994.70
2017-10-02T01:41:48.913Z,994.75
2017-10-02T01:41:49.728Z,994.70
2017-10-02T01:44:31.154Z,994.81
2017-10-02T01:44:32.068Z,994.79
2017-10-02T01:44:44.408Z,994.79
2017-10-02T01:47:50.075Z,994.82
2017-10-02T01:47:50.889Z,994.82
2017-10-02T01:47:51.802Z,994.72
2017-10-02T01:50:32.043Z,994.83
2017-10-02T01:50:32.956Z,994.76
2017-10-02T01:50:44.490Z,994.73
2017-10-02T01:53:53.261Z,994.72
2017-10-02T01:53:54.376Z,994.72
2017-10-02T01:53:55.391Z,994.77
2017-10-02T01:57:03.808Z,994.75
2017-10-02T01:57:04.721Z,994.83
2017-10-02T01:57:05.654Z,994.80
2017-10-02T01:59:55.229Z,994.76
2017-10-02T01:59:56.345Z,994.69
2017-10-02T01:59:57.358Z,994.68
2017-10-02T02:00:44.573Z,994.67
2017-10-02T02:01:47.304Z,994.61
2017-10-02T02:02:44.610Z,994.59
2017-10-02T02:03:45.231Z,994.66
2017-10-02T02:04:45.251Z,994.60
2017-10-02T02:05:45.779Z,994.60
2017-10-02T02:06:45.705Z,994.65
2017-10-02T02:07:46.025Z,994.63
2017-10-02T02:08:45.958Z,994.62
2017-10-02T02:09:45.786Z,994.60
2017-10-02T02:10:46.409Z,994.59
2017-10-02T02:11:46.039Z,994.56
2017-10-02T02:12:45.355Z,994.57
2017-10-02T02:13:45.074Z,994.55
2017-10-02T02:14:44.486Z,994.58
2017-10-02T02:15:45.439Z,994.50
2017-10-02T02:16:44.528Z,994.54
2017-10-02T02:17:44.557Z,994.50
2017-10-02T02:18:44.479Z,994.47
2017-10-02T02:19:45.097Z,994.54
2017-10-02T02:20:45.270Z,994.50
2017-10-02T02:21:46.072Z,994.57
2017-10-02T02:22:45.982Z,994.57
2017-10-02T02:23:45.493Z,994.54
2017-10-02T02:24:45.907Z,994.55
2017-10-02T02:25:45.828Z,994.51
2017-10-02T02:26:45.844Z,994.50
2017-10-02T02:27:45.455Z,994.49
2017-10-02T02:28:45.572Z,994.47
2017-10-02T02:29:45.592Z,994.46
2017-10-02T02:30:45.527Z,994.44
2017-10-02T02:31:45.355Z,994.39
2017-10-02T02:32:45.474Z,994.39
2017-10-02T02:33:44.711Z,994.31
2017-10-02T02:34:44.629Z,994.38
2017-10-02T02:35:44.765Z,994.32
2017-10-02T02:36:44.608Z,994.32
2017-10-02T02:37:45.332Z,994.31
2017-10-02T02:38:45.482Z,994.18
2017-10-02T02:39:45.799Z,994.19
2017-10-02T02:40:45.900Z,994.21
2017-10-02T02:41:45.921Z,994.16
2017-10-02T02:42:46.049Z,994.19
2017-10-02T02:43:45.366Z,994.13
2017-10-02T02:44:45.482Z,994.09
2017-10-02T02:45:46.110Z,994.10
2017-10-02T02:46:45.533Z,994.12
2017-10-02T02:47:45.553Z,994.07
2017-10-02T02:48:45.378Z,994.12
2017-10-02T02:49:45.487Z,994.06
2017-10-02T02:50:44.726Z,994.03
2017-10-02T02:51:44.642Z,994.11
2017-10-02T02:52:44.671Z,994.11
2017-10-02T02:53:44.687Z,994.11
2017-10-02T02:54:44.829Z,994.11
2017-10-02T02:55:44.747Z,994.10
2017-10-02T02:56:44.766Z,994.10
2017-10-02T02:57:44.785Z,994.17
2017-10-02T02:58:45.703Z,994.17
2017-10-02T02:59:45.422Z,994.16
2017-10-02T03:00:46.266Z,994.19
2017-10-02T03:01:46.006Z,994.10
2017-10-02T03:02:45.426Z,994.10
2017-10-02T03:03:45.366Z,994.02
2017-10-02T03:04:44.650Z,994.06
2017-10-02T03:05:45.588Z,994.03
2017-10-02T03:06:44.789Z,994.10
2017-10-02T03:07:44.639Z,994.08
2017-10-02T03:08:44.681Z,994.11
2017-10-02T03:09:44.696Z,994.08
2017-10-02T03:10:44.845Z,994.09
2017-10-02T03:11:44.763Z,994.13
2017-10-02T03:12:45.678Z,994.15
2017-10-02T03:13:46.211Z,994.14
2017-10-02T03:14:46.247Z,994.11
2017-10-02T03:15:46.070Z,994.12
2017-10-02T03:16:46.098Z,994.11
2017-10-02T03:17:46.118Z,994.13
2017-10-02T03:18:45.543Z,994.19
2017-10-02T03:19:45.561Z,994.16
2017-10-02T03:20:45.576Z,994.06
2017-10-02T03:21:45.425Z,994.05
2017-10-02T03:22:44.734Z,994.11
2017-10-02T03:23:44.752Z,994.10
2017-10-02T03:24:44.775Z,994.03
2017-10-02T03:25:44.747Z,994.00
2017-10-02T03:26:44.663Z,993.99
2017-10-02T03:27:44.779Z,993.99
2017-10-02T03:28:45.394Z,994.00
2017-10-02T03:29:46.117Z,993.99
2017-10-02T03:30:46.154Z,994.05
2017-10-02T03:32:03.810Z,994.05
2017-10-02T03:33:50.909Z,993.98
2017-10-02T03:33:51.714Z,994.00
2017-10-02T03:33:52.830Z,994.06
2017-10-02T03:34:44.625Z,993.93
2017-10-02T03:35:46.143Z,994.00
2017-10-02T03:36:45.603Z,993.95
2017-10-02T03:37:45.418Z,993.91
2017-10-02T03:38:45.556Z,993.91
2017-10-02T03:39:44.875Z,993.88
2017-10-02T03:40:44.905Z,993.87
2017-10-02T03:41:44.852Z,993.91
2017-10-02T03:42:44.796Z,993.90
2017-10-02T03:43:44.804Z,993.89
2017-10-02T03:44:44.924Z,993.95
2017-10-02T03:45:45.060Z,994.02
2017-10-02T03:46:44.881Z,993.97
2017-10-02T03:47:46.014Z,993.97
2017-10-02T03:48:46.035Z,993.91
2017-10-02T03:49:46.073Z,993.96
2017-10-02T03:50:46.239Z,993.96
2017-10-02T03:51:46.064Z,993.91
2017-10-02T03:52:45.575Z,993.90
2017-10-02T03:53:45.416Z,993.94
2017-10-02T03:54:45.635Z,993.86
2017-10-02T03:55:45.876Z,993.83
2017-10-02T03:56:44.805Z,993.86
2017-10-02T03:57:44.822Z,993.74
2017-10-02T03:58:44.889Z,993.75
2017-10-02T03:59:44.911Z,993.76
2017-10-02T04:00:44.868Z,993.74
2017-10-02T04:01:45.493Z,993.80
2017-10-02T04:02:45.714Z,993.74
2017-10-02T04:03:45.731Z,993.68
2017-10-02T04:04:45.745Z,993.77
2017-10-02T04:05:46.302Z,993.69
2017-10-02T04:06:46.222Z,993.72
2017-10-02T04:07:46.042Z,993.72
2017-10-02T04:08:46.185Z,993.76
2017-10-02T04:09:45.604Z,993.69
2017-10-02T04:10:45.730Z,993.72
2017-10-02T04:11:44.846Z,993.68
2017-10-02T04:12:45.586Z,993.63
2017-10-02T04:13:44.911Z,993.62
2017-10-02T04:14:44.929Z,993.60
2017-10-02T04:15:44.858Z,993.66
2017-10-02T04:16:44.896Z,993.69
2017-10-02T04:17:44.921Z,993.59
2017-10-02T04:18:45.771Z,993.57
2017-10-02T04:19:46.190Z,993.48
2017-10-02T04:20:45.799Z,993.58
2017-10-02T04:21:46.319Z,993.47
2017-10-02T04:22:46.237Z,993.58
2017-10-02T04:23:46.267Z,993.56
2017-10-02T04:24:45.671Z,993.50
2017-10-02T04:25:45.939Z,993.51
2017-10-02T04:26:45.561Z,993.52
2017-10-02T04:27:45.841Z,993.51
2017-10-02T04:28:45.658Z,993.42
2017-10-02T04:29:45.784Z,993.45
2017-10-02T04:30:44.884Z,993.42
2017-10-02T04:31:44.907Z,993.44
2017-10-02T04:32:44.926Z,993.51
2017-10-02T04:33:44.954Z,993.48
2017-10-02T04:34:44.960Z,993.51
2017-10-02T04:35:45.677Z,993.48
2017-10-02T04:36:45.997Z,993.53
2017-10-02T04:37:45.714Z,993.53
2017-10-02T04:38:45.627Z,993.52
2017-10-02T04:39:46.273Z,993.48
2017-10-02T04:40:46.417Z,993.45
2017-10-02T04:41:46.251Z,993.51
2017-10-02T04:42:45.790Z,993.48
2017-10-02T04:43:45.666Z,993.42
2017-10-02T04:44:45.705Z,993.44
2017-10-02T04:45:46.034Z,993.49
2017-10-02T04:46:44.978Z,993.48
2017-10-02T04:47:45.703Z,993.42
2017-10-02T04:48:45.079Z,993.43
2017-10-02T04:49:45.086Z,993.41
2017-10-02T04:50:45.097Z,993.33
2017-10-02T04:51:45.056Z,993.38
2017-10-02T04:52:45.108Z,993.30
2017-10-02T04:53:45.124Z,993.26
2017-10-02T04:54:45.048Z,993.23
2017-10-02T04:55:46.282Z,993.24
2017-10-02T04:56:46.420Z,993.25
2017-10-02T04:57:46.256Z,993.27
2017-10-02T04:58:46.386Z,993.21
2017-10-02T04:59:45.909Z,993.18
2017-10-02T05:00:46.498Z,993.18
2017-10-02T05:01:45.725Z,993.12
2017-10-02T05:02:45.771Z,993.10
2017-10-02T05:03:45.709Z,993.06
2017-10-02T05:04:45.042Z,993.07
2017-10-02T05:05:45.131Z,993.01
2017-10-02T05:06:45.111Z,993.06
2017-10-02T05:07:45.143Z,993.03
2017-10-02T05:08:45.123Z,993.00
2017-10-02T05:09:45.066Z,993.06
2017-10-02T05:10:45.191Z,993.02
2017-10-02T05:11:45.243Z,993.01
2017-10-02T05:12:46.369Z,993.00
2017-10-02T05:13:46.313Z,992.99
2017-10-02T05:14:45.549Z,993.01
2017-10-02T05:15:46.520Z,992.99
2017-10-02T05:16:46.459Z,992.99
2017-10-02T05:17:46.489Z,992.93
2017-10-02T05:18:45.796Z,992.92
2017-10-02T05:19:45.929Z,992.94
2017-10-02T05:20:46.040Z,992.91
2017-10-02T05:21:46.140Z,992.92
2017-10-02T05:22:45.067Z,992.86
2017-10-02T05:23:45.122Z,992.92
2017-10-02T05:24:45.167Z,992.88
2017-10-02T05:25:45.393Z,992.92
2017-10-02T05:26:45.143Z,992.90
2017-10-02T05:27:45.367Z,992.86
2017-10-02T05:28:45.363Z,992.86
2017-10-02T05:29:45.167Z,992.86
2017-10-02T05:30:46.545Z,992.93
2017-10-02T05:31:46.570Z,992.87
2017-10-02T05:32:45.880Z,992.94
2017-10-02T05:33:46.093Z,992.89
2017-10-02T05:34:46.437Z,992.86
2017-10-02T05:35:46.044Z,992.91
2017-10-02T05:36:45.870Z,992.85
2017-10-02T05:37:46.100Z,992.83
2017-10-02T05:38:46.431Z,992.78
2017-10-02T05:39:45.979Z,992.72
2017-10-02T05:40:45.204Z,992.81
2017-10-02T05:41:45.355Z,992.73
2017-10-02T05:42:45.262Z,992.83
2017-10-02T05:43:45.329Z,992.71
2017-10-02T05:44:45.376Z,992.76
2017-10-02T05:45:45.125Z,992.71
2017-10-02T05:46:46.048Z,992.71
2017-10-02T05:47:46.481Z,992.57
2017-10-02T05:48:46.616Z,992.64
2017-10-02T05:49:45.947Z,992.61
2017-10-02T05:50:46.061Z,992.52
2017-10-02T05:51:46.086Z,992.44
2017-10-02T05:52:46.103Z,992.54
2017-10-02T05:53:45.915Z,992.50
2017-10-02T05:54:46.374Z,992.60
2017-10-02T05:55:46.282Z,992.52
2017-10-02T05:56:45.309Z,992.57
2017-10-02T05:57:45.337Z,992.53
2017-10-02T05:58:45.361Z,992.54
2017-10-02T05:59:45.424Z,992.54
2017-10-02T06:00:45.364Z,992.54
2017-10-02T06:01:46.403Z,992.58
2017-10-02T06:02:45.510Z,992.58
2017-10-02T06:03:45.492Z,992.50
2017-10-02T06:04:46.737Z,992.61
2017-10-02T06:05:46.342Z,992.49
2017-10-02T06:06:45.977Z,992.51
2017-10-02T06:07:46.601Z,992.43
2017-10-02T06:08:45.864Z,992.38
2017-10-02T06:09:45.932Z,992.36
2017-10-02T06:10:46.299Z,992.35
2017-10-02T06:11:47.003Z,992.32
2017-10-02T06:12:46.174Z,992.40
2017-10-02T06:13:46.297Z,992.42
2017-10-02T06:14:46.535Z,992.49
2017-10-02T06:15:45.421Z,992.40
2017-10-02T06:16:45.355Z,992.47
2017-10-02T06:17:46.399Z,992.47
2017-10-02T06:18:45.417Z,992.46
2017-10-02T06:19:45.561Z,992.48
2017-10-02T06:20:45.814Z,992.49
2017-10-02T06:21:45.727Z,992.53
2017-10-02T06:22:45.641Z,992.50
2017-10-02T06:23:45.454Z,992.46
2017-10-02T06:24:46.735Z,992.53
2017-10-02T06:25:46.704Z,992.47
2017-10-02T06:26:46.731Z,992.50
2017-10-02T06:27:46.380Z,992.43
2017-10-02T06:28:46.029Z,992.36
2017-10-02T06:29:46.177Z,992.40
2017-10-02T06:30:46.185Z,992.40
2017-10-02T06:31:45.304Z,992.40
2017-10-02T06:32:45.536Z,992.41
2017-10-02T06:33:45.367Z,992.40
2017-10-02T06:34:45.503Z,992.36
2017-10-02T06:35:45.572Z,992.35
2017-10-02T06:36:45.519Z,992.33
2017-10-02T06:37:46.661Z,992.30
2017-10-02T06:38:46.171Z,992.31
2017-10-02T06:39:46.693Z,992.33
2017-10-02T06:40:47.014Z,992.34
2017-10-02T06:41:47.035Z,992.26
2017-10-02T06:42:46.065Z,992.33
2017-10-02T06:43:46.692Z,992.28
2017-10-02T06:44:46.107Z,992.32
2017-10-02T06:45:48.633Z,992.32
2017-10-02T06:46:45.544Z,992.34
2017-10-02T06:47:46.170Z,992.27
2017-10-02T06:48:46.087Z,992.37
2017-10-02T06:49:46.109Z,992.36
2017-10-02T06:50:46.256Z,992.30
2017-10-02T06:51:46.169Z,992.35
2017-10-02T06:52:46.611Z,992.36
2017-10-02T06:53:46.671Z,992.34
2017-10-02T06:54:46.780Z,992.32
2017-10-02T06:55:46.317Z,992.28
2017-10-02T06:56:46.736Z,992.23
2017-10-02T06:57:46.668Z,992.18
2017-10-02T06:58:46.820Z,992.12
2017-10-02T06:59:46.954Z,992.13
2017-10-02T07:00:46.936Z,992.08
2017-10-02T07:01:46.193Z,992.08
2017-10-02T07:02:46.216Z,992.09
2017-10-02T07:03:46.185Z,992.21
2017-10-02T07:04:46.237Z,992.19
2017-10-02T07:05:46.293Z,992.19
2017-10-02T07:06:47.463Z,992.13
2017-10-02T07:07:45.592Z,992.15
2017-10-02T07:08:45.745Z,985.25
2017-10-02T07:09:45.495Z,992.16
2017-10-02T07:10:46.314Z,992.10
2017-10-02T07:11:46.261Z,992.06
2017-10-02T07:12:46.803Z,992.04
2017-10-02T07:13:47.130Z,992.06
2017-10-02T07:14:46.847Z,992.01
2017-10-02T07:15:46.877Z,991.95
2017-10-02T07:16:46.200Z,991.93
2017-10-02T07:17:46.283Z,991.92
2017-10-02T07:18:46.224Z,991.86
2017-10-02T07:19:46.234Z,991.83
2017-10-02T07:20:46.271Z,991.86
2017-10-02T07:21:46.397Z,991.87
2017-10-02T07:22:45.626Z,991.77
2017-10-02T07:23:45.744Z,991.80
2017-10-02T07:24:45.762Z,991.89
2017-10-02T07:25:45.690Z,991.81
2017-10-02T07:26:45.713Z,991.74
2017-10-02T07:27:45.822Z,991.79
2017-10-02T07:28:45.649Z,991.73
2017-10-02T07:29:46.879Z,991.76
2017-10-02T07:30:46.991Z,991.75
2017-10-02T07:31:46.815Z,991.68
2017-10-02T07:32:46.837Z,991.64
2017-10-02T07:33:46.958Z,991.67
2017-10-02T07:34:46.978Z,991.61
2017-10-02T07:35:46.944Z,991.65
2017-10-02T07:36:46.351Z,991.62
2017-10-02T07:37:46.373Z,991.66
2017-10-02T07:38:45.589Z,991.60
2017-10-02T07:39:46.425Z,991.71
2017-10-02T07:40:45.753Z,991.62
2017-10-02T07:41:45.595Z,991.69
2017-10-02T07:42:46.336Z,991.58
2017-10-02T07:43:46.364Z,991.61
2017-10-02T07:44:46.284Z,991.59
2017-10-02T07:45:46.918Z,991.63
2017-10-02T07:46:46.942Z,991.64
2017-10-02T07:47:46.966Z,991.63
2017-10-02T07:48:46.790Z,991.61
2017-10-02T07:49:46.401Z,991.63
2017-10-02T07:50:46.936Z,991.60
2017-10-02T07:51:46.958Z,991.69
2017-10-02T07:52:46.379Z,991.65
2017-10-02T07:53:46.313Z,991.61
2017-10-02T07:54:46.332Z,991.62
2017-10-02T07:55:46.468Z,991.64
2017-10-02T07:56:45.780Z,991.72
2017-10-02T07:57:45.698Z,991.73
2017-10-02T07:58:45.826Z,991.66
2017-10-02T07:59:45.770Z,991.77
2017-10-02T08:00:45.891Z,991.87
2017-10-02T08:01:47.556Z,991.77
2017-10-02T08:02:45.764Z,991.73
2017-10-02T08:03:46.998Z,991.77
2017-10-02T08:04:47.020Z,991.78
2017-10-02T08:05:47.065Z,991.78
2017-10-02T08:06:46.990Z,991.75
2017-10-02T08:07:46.924Z,991.82
2017-10-02T08:08:46.333Z,991.74
2017-10-02T08:09:46.465Z,991.75
2017-10-02T08:10:46.580Z,991.79
2017-10-02T08:11:45.682Z,991.85
2017-10-02T08:12:46.434Z,991.86
2017-10-02T08:13:46.567Z,991.84
2017-10-02T08:14:45.782Z,991.86
2017-10-02T08:15:45.826Z,991.83
2017-10-02T08:16:45.996Z,991.87
2017-10-02T08:17:45.933Z,991.86
2017-10-02T08:18:45.770Z,991.77
2017-10-02T08:19:46.395Z,991.83
2017-10-02T08:20:46.642Z,991.80
2017-10-02T08:21:46.976Z,991.85
2017-10-02T08:22:47.093Z,991.77
2017-10-02T08:23:46.653Z,991.80
2017-10-02T08:24:46.403Z,991.86
2017-10-02T08:25:47.131Z,991.81
2017-10-02T08:26:46.358Z,991.82
2017-10-02T08:27:46.499Z,991.80
2017-10-02T08:28:46.423Z,991.78
2017-10-02T08:29:45.760Z,991.79
2017-10-02T08:30:45.796Z,991.85
2017-10-02T08:31:45.766Z,991.78
2017-10-02T08:32:47.216Z,991.82
2017-10-02T08:33:45.839Z,991.82
2017-10-02T08:34:45.790Z,991.80
2017-10-02T08:35:46.656Z,991.77
2017-10-02T08:36:46.783Z,991.79
2017-10-02T08:37:47.027Z,991.72
2017-10-02T08:38:47.262Z,991.73
2017-10-02T08:39:47.201Z,991.70
2017-10-02T08:40:47.117Z,991.72
2017-10-02T08:41:47.272Z,991.66
2017-10-02T08:42:46.397Z,991.66
2017-10-02T08:43:46.711Z,991.70
2017-10-02T08:44:46.619Z,991.69
2017-10-02T08:45:46.467Z,991.72
2017-10-02T08:46:45.772Z,991.68
2017-10-02T08:47:46.602Z,991.74
2017-10-02T08:48:45.910Z,991.70
2017-10-02T08:49:47.655Z,991.62
2017-10-02T08:50:45.960Z,991.61
2017-10-02T08:51:45.784Z,991.55
2017-10-02T08:52:46.415Z,991.49
2017-10-02T08:53:46.640Z,991.56
2017-10-02T08:54:46.545Z,991.60
2017-10-02T08:55:46.673Z,991.54
2017-10-02T08:56:47.012Z,991.44
2017-10-02T08:57:47.050Z,991.46
2017-10-02T08:58:47.087Z,991.45
2017-10-02T08:59:46.936Z,991.41
2017-10-02T09:00:47.148Z,991.43
2017-10-02T09:01:46.471Z,991.43
2017-10-02T09:02:46.611Z,991.36
2017-10-02T09:03:46.831Z,991.37
2017-10-02T09:04:46.611Z,991.30
2017-10-02T09:05:45.945Z,991.30
2017-10-02T09:06:46.649Z,991.30
2017-10-02T09:07:45.944Z,991.27
2017-10-02T09:08:45.983Z,991.25
2017-10-02T09:09:45.974Z,991.23
2017-10-02T09:10:46.037Z,991.21
2017-10-02T09:11:46.020Z,991.26
2017-10-02T09:12:46.061Z,991.20
2017-10-02T09:13:46.096Z,991.23
2017-10-02T09:14:46.005Z,991.19
2017-10-02T09:15:46.970Z,991.12
2017-10-02T09:16:47.345Z,991.15
2017-10-02T09:17:46.585Z,991.18
2017-10-02T09:18:47.225Z,991.12
2017-10-02T09:19:46.996Z,991.21
2017-10-02T09:20:46.795Z,991.17
2017-10-02T09:21:45.919Z,991.12
2017-10-02T09:22:46.830Z,991.11
2017-10-02T09:23:45.966Z,991.13
2017-10-02T09:24:45.995Z,991.11
2017-10-02T09:25:45.895Z,991.11
2017-10-02T09:26:45.932Z,991.11
2017-10-02T09:27:47.002Z,991.15
2017-10-02T09:28:46.625Z,991.14
2017-10-02T09:29:46.740Z,991.19
2017-10-02T09:30:46.978Z,991.17
2017-10-02T09:31:47.344Z,991.19
2017-10-02T09:32:47.324Z,991.22
2017-10-02T09:33:47.094Z,991.23
2017-10-02T09:34:46.825Z,991.19
2017-10-02T09:35:46.689Z,991.24
2017-10-02T09:36:46.710Z,991.14
2017-10-02T09:37:46.643Z,991.04
2017-10-02T09:38:46.723Z,991.05
2017-10-02T09:39:46.009Z,991.09
2017-10-02T09:40:46.986Z,991.06
2017-10-02T09:41:46.156Z,990.97
2017-10-02T09:42:45.996Z,991.04
2017-10-02T09:43:47.172Z,990.97
2017-10-02T09:44:46.038Z,991.00
2017-10-02T09:45:46.839Z,990.94
2017-10-02T09:46:47.376Z,990.89
2017-10-02T09:47:47.207Z,990.83
2017-10-02T09:48:47.667Z,990.74
2017-10-02T09:49:47.234Z,990.67
2017-10-02T09:50:47.385Z,990.58
2017-10-02T09:51:47.231Z,990.58
2017-10-02T09:52:47.379Z,990.60
2017-10-02T09:53:46.851Z,990.77
2017-10-02T09:54:46.667Z,990.86
2017-10-02T09:55:46.788Z,990.90
2017-10-02T09:56:46.026Z,991.00
2017-10-02T09:57:46.156Z,990.94
2017-10-02T09:58:46.076Z,991.03
2017-10-02T09:59:46.013Z,991.08
2017-10-02T10:00:46.072Z,991.06
2017-10-02T10:01:46.338Z,991.00
2017-10-02T10:02:46.081Z,991.05
2017-10-02T10:03:46.920Z,990.95
2017-10-02T10:04:47.347Z,990.94
2017-10-02T10:05:47.689Z,990.87
2017-10-02T10:06:47.507Z,990.77
2017-10-02T10:07:47.544Z,990.78
2017-10-02T10:08:46.866Z,990.74
2017-10-02T10:09:46.811Z,990.74
2017-10-02T10:10:47.117Z,990.61
2017-10-02T10:11:46.738Z,990.71
2017-10-02T10:12:46.079Z,990.72
2017-10-02T10:13:46.068Z,990.58
2017-10-02T10:14:47.072Z,990.56
2017-10-02T10:15:46.136Z,990.56
2017-10-02T10:16:46.093Z,990.56
2017-10-02T10:17:46.137Z,990.55
2017-10-02T10:18:46.227Z,990.51
2017-10-02T10:19:46.262Z,990.47
2017-10-02T10:20:46.117Z,990.45
2017-10-02T10:21:47.469Z,990.58
2017-10-02T10:22:47.622Z,990.51
2017-10-02T10:23:47.565Z,990.52
2017-10-02T10:24:47.485Z,990.51
2017-10-02T10:25:47.741Z,990.44
2017-10-02T10:26:47.614Z,990.64
2017-10-02T10:27:46.746Z,990.55
2017-10-02T10:28:46.837Z,990.62
2017-10-02T10:29:46.901Z,990.56
2017-10-02T10:30:47.994Z,990.49
2017-10-02T10:31:46.198Z,990.59
2017-10-02T10:32:46.223Z,990.47
2017-10-02T10:33:46.218Z,990.55
2017-10-02T10:34:46.174Z,990.51
2017-10-02T10:35:46.763Z,990.57
2017-10-02T10:36:47.543Z,990.49
2017-10-02T10:37:46.887Z,990.47
2017-10-02T10:38:47.628Z,990.49
2017-10-02T10:39:47.157Z,990.55
2017-10-02T10:40:47.733Z,990.48
2017-10-02T10:41:47.603Z,990.55
2017-10-02T10:42:47.574Z,990.51
2017-10-02T10:43:46.796Z,990.57
2017-10-02T10:44:46.853Z,990.54
2017-10-02T10:45:46.919Z,990.60
2017-10-02T10:46:46.905Z,990.54
2017-10-02T10:47:46.867Z,990.48
2017-10-02T10:48:47.028Z,990.45
2017-10-02T10:49:46.185Z,990.45
2017-10-02T10:50:46.292Z,990.47
2017-10-02T10:51:46.235Z,990.45
2017-10-02T10:52:46.355Z,990.46
2017-10-02T10:53:46.223Z,990.42
2017-10-02T10:54:46.951Z,990.47
2017-10-02T10:55:47.090Z,990.46
2017-10-02T10:56:47.142Z,990.39
2017-10-02T10:57:47.071Z,990.40
2017-10-02T10:58:47.701Z,990.32
2017-10-02T10:59:47.833Z,990.32
2017-10-02T11:00:47.573Z,990.29
2017-10-02T11:01:46.849Z,990.26
2017-10-02T11:02:46.880Z,990.26
2017-10-02T11:03:47.017Z,990.23
2017-10-02T11:04:46.277Z,990.28
2017-10-02T11:05:46.317Z,990.29
2017-10-02T11:06:46.291Z,990.24
2017-10-02T11:07:46.311Z,990.27
2017-10-02T11:08:46.268Z,990.31
2017-10-02T11:09:46.225Z,990.28
2017-10-02T11:10:47.666Z,990.32
2017-10-02T11:11:47.700Z,990.16
2017-10-02T11:12:47.164Z,990.18
2017-10-02T11:13:47.185Z,990.21
2017-10-02T11:14:47.408Z,990.24
2017-10-02T11:15:47.836Z,990.26
2017-10-02T11:16:48.472Z,990.20
2017-10-02T11:17:46.292Z,990.24
2017-10-02T11:18:48.049Z,990.24
2017-10-02T11:19:46.892Z,990.26
2017-10-02T11:20:46.902Z,990.21
2017-10-02T11:21:47.154Z,990.29
2017-10-02T11:22:46.377Z,990.28
2017-10-02T11:23:47.141Z,990.29
2017-10-02T11:24:46.472Z,990.19
2017-10-02T11:25:46.514Z,990.18
2017-10-02T11:26:46.332Z,990.26
2017-10-02T11:27:47.061Z,990.20
2017-10-02T11:28:46.992Z,990.18
2017-10-02T11:29:47.576Z,990.26
2017-10-02T11:30:47.200Z,990.24
2017-10-02T11:31:47.526Z,990.32
2017-10-02T11:32:47.878Z,990.23
2017-10-02T11:33:47.639Z,990.23
2017-10-02T11:34:47.674Z,990.27
2017-10-02T11:35:47.189Z,990.26
2017-10-02T11:36:47.017Z,990.21
2017-10-02T11:37:47.074Z,990.24
2017-10-02T11:38:47.114Z,990.20
2017-10-02T11:39:46.388Z,990.15
2017-10-02T11:40:47.132Z,990.16
2017-10-02T11:41:46.370Z,990.15
2017-10-02T11:42:46.367Z,990.16
2017-10-02T11:43:46.411Z,990.18
2017-10-02T11:44:46.370Z,990.21
2017-10-02T11:45:47.104Z,990.17
2017-10-02T11:46:47.249Z,990.24
2017-10-02T11:47:47.722Z,990.24
2017-10-02T11:48:47.845Z,990.27
2017-10-02T11:49:47.679Z,990.26
2017-10-02T11:50:47.717Z,990.24
2017-10-02T11:51:47.447Z,990.26
2017-10-02T11:52:47.162Z,990.22
2017-10-02T11:53:47.110Z,990.23
2017-10-02T11:54:47.022Z,990.12
2017-10-02T11:55:47.186Z,990.10
2017-10-02T11:56:46.404Z,990.11
2017-10-02T11:57:46.454Z,990.04
2017-10-02T11:58:46.489Z,990.07
2017-10-02T11:59:46.405Z,990.04
2017-10-02T12:00:46.640Z,990.01
2017-10-02T12:01:46.465Z,989.99
2017-10-02T12:02:46.482Z,990.02
2017-10-02T12:03:47.724Z,989.93
2017-10-02T12:04:47.857Z,989.95
2017-10-02T12:05:47.873Z,989.89
2017-10-02T12:06:47.809Z,989.85
2017-10-02T12:07:47.662Z,989.85
2017-10-02T12:08:47.288Z,989.88
2017-10-02T12:09:47.120Z,989.91
2017-10-02T12:10:47.871Z,989.89
2017-10-02T12:11:47.193Z,989.93
2017-10-02T12:12:47.113Z,989.83
2017-10-02T12:13:46.527Z,989.89
2017-10-02T12:14:46.484Z,989.84
2017-10-02T12:15:46.614Z,989.78
2017-10-02T12:16:46.648Z,989.80
2017-10-02T12:17:46.611Z,989.80
2017-10-02T12:18:46.565Z,989.79
2017-10-02T12:19:47.741Z,989.77
2017-10-02T12:20:47.691Z,989.79
2017-10-02T12:21:47.734Z,989.76
2017-10-02T12:22:47.768Z,989.70
2017-10-02T12:23:47.812Z,989.80
2017-10-02T12:24:47.751Z,989.72
2017-10-02T12:25:47.375Z,989.73
2017-10-02T12:26:47.216Z,989.72
2017-10-02T12:27:47.337Z,989.76